Time;durP1;ratioP1;P1;durP2;ratioP2;P2;SDS_P1;SDS_P2;PMS_P1;PMS_P2;Temp;Humidity;BMP_temperature;BMP_pressure;BME280_temperature;BME280_humidity;BME280_pressure;Samples;Min_cycle;Max_cycle;Signal;HPM_P1;HPM_P2
2023/06/23 00:00:39;;;;;;;9.00;7.60;;;24.60;82.90;;;;;;4966817;28;20437;-87
2023/06/23 00:03:05;;;;;;;10.00;7.33;;;24.50;82.80;;;;;;4946301;28;20513;-86
2023/06/23 00:05:34;;;;;;;8.50;7.23;;;24.60;82.90;;;;;;4946121;28;20552;-88
2023/06/23 00:08:00;;;;;;;8.63;7.70;;;24.50;82.30;;;;;;4946271;28;20195;-86
2023/06/23 00:10:26;;;;;;;9.43;7.70;;;24.60;82.30;;;;;;4961809;28;20453;-86
2023/06/23 00:12:54;;;;;;;7.40;6.67;;;24.50;82.20;;;;;;4961837;28;20418;-86
2023/06/23 00:15:21;;;;;;;8.53;7.37;;;24.60;81.90;;;;;;4946522;28;20221;-85
2023/06/23 00:17:48;;;;;;;7.50;6.67;;;24.60;82.10;;;;;;4956531;28;20580;-86
2023/06/23 00:20:14;;;;;;;7.57;6.77;;;24.50;82.00;;;;;;4964952;28;20968;-86
2023/06/23 00:22:46;;;;;;;8.60;7.23;;;24.50;82.10;;;;;;4965236;28;20451;-86
2023/06/23 00:25:13;;;;;;;7.63;6.83;;;24.50;82.10;;;;;;4950498;29;20823;-84
2023/06/23 00:27:45;;;;;;;8.17;7.33;;;24.50;82.20;;;;;;4926908;29;20454;-86
2023/06/23 00:30:14;;;;;;;7.33;6.60;;;24.50;82.30;;;;;;4927104;29;20426;-86
2023/06/23 00:32:41;;;;;;;8.13;7.33;;;24.50;82.30;;;;;;4963485;29;20748;-86
2023/06/23 00:35:08;;;;;;;8.10;6.70;;;24.40;82.30;;;;;;4945931;28;20434;-86
2023/06/23 00:37:41;;;;;;;6.43;5.80;;;24.50;82.60;;;;;;4962442;28;20441;-86
2023/06/23 00:40:10;;;;;;;7.60;6.70;;;24.50;82.50;;;;;;4978903;28;20473;-90
2023/06/23 00:42:47;;;;;;;7.47;6.60;;;24.40;82.50;;;;;;4978861;28;20434;-87
2023/06/23 00:45:13;;;;;;;7.60;6.50;;;24.50;82.60;;;;;;4947656;28;20469;-86
2023/06/23 00:47:46;;;;;;;7.37;6.67;;;24.40;82.60;;;;;;4937788;28;20501;-87
2023/06/23 00:50:16;;;;;;;7.33;6.63;;;24.40;82.80;;;;;;4946685;28;20422;-85
2023/06/23 00:52:50;;;;;;;6.90;6.20;;;24.40;83.00;;;;;;4946451;28;20508;-87
2023/06/23 00:55:19;;;;;;;7.07;6.37;;;24.40;83.10;;;;;;4947142;28;20817;-87
2023/06/23 00:57:49;;;;;;;6.17;5.67;;;24.40;83.50;;;;;;4946725;28;20473;-87
2023/06/23 01:00:18;;;;;;;7.03;6.43;;;24.30;83.80;;;;;;4979288;28;20473;-87
2023/06/23 01:02:51;;;;;;;6.87;6.17;;;24.40;84.40;;;;;;4946835;28;20442;-87
2023/06/23 01:05:23;;;;;;;6.80;6.20;;;24.30;84.60;;;;;;4946440;28;20469;-87
2023/06/23 01:07:57;;;;;;;6.40;5.90;;;24.40;84.80;;;;;;4946279;28;20438;-86
2023/06/23 01:10:39;;;;;;;8.33;6.97;;;24.40;85.00;;;;;;4946129;28;20445;-87
2023/06/23 01:13:17;;;;;;;8.10;6.07;;;24.40;85.00;;;;;;4946047;28;20434;-87
2023/06/23 01:15:53;;;;;;;8.13;6.20;;;24.30;85.30;;;;;;4967383;28;20460;-87
2023/06/23 01:18:40;;;;;;;7.40;6.40;;;24.30;85.80;;;;;;4969451;28;20428;-88
2023/06/23 01:21:15;;;;;;;7.23;5.87;;;24.20;86.20;;;;;;4984182;28;20506;-88
2023/06/23 01:24:11;;;;;;;7.20;6.27;;;24.30;86.60;;;;;;4969191;28;20424;-87
2023/06/23 01:26:46;;;;;;;8.60;6.60;;;24.20;86.70;;;;;;4961299;28;20569;-88
2023/06/23 01:29:21;;;;;;;7.50;6.80;;;24.30;87.00;;;;;;4961982;28;20438;-87
2023/06/23 01:32:05;;;;;;;7.60;6.90;;;24.20;87.50;;;;;;4961551;28;20933;-88
2023/06/23 01:34:56;;;;;;;7.07;6.33;;;24.20;88.00;;;;;;4962233;28;20888;-91
2023/06/23 01:37:32;;;;;;;7.10;6.40;;;24.20;88.50;;;;;;4930436;28;20464;-88
2023/06/23 01:40:10;;;;;;;7.90;7.10;;;24.20;89.80;;;;;;4977877;28;20465;-88
2023/06/23 01:42:41;;;;;;;8.20;7.40;;;24.10;90.10;;;;;;4930288;28;20451;-87
2023/06/23 01:45:08;;;;;;;7.00;6.30;;;24.10;90.30;;;;;;4942531;29;20506;-89
2023/06/23 01:47:39;;;;;;;6.77;5.97;;;24.10;90.60;;;;;;4978786;28;20552;-89
2023/06/23 01:50:12;;;;;;;6.70;6.10;;;24.20;90.60;;;;;;4985274;28;20797;-88
2023/06/23 01:56:54;;;;;;;8.20;5.83;;;24.20;91.00;;;;;;5017842;28;20731;-90
2023/06/23 01:59:24;;;;;;;7.40;6.57;;;24.10;91.60;;;;;;4968657;28;20432;-90
2023/06/23 02:01:52;;;;;;;6.53;5.80;;;24.10;92.00;;;;;;4984497;28;20435;-89
2023/06/23 02:04:19;;;;;;;6.50;5.80;;;24.10;92.20;;;;;;4984061;28;20487;-89
2023/06/23 02:06:50;;;;;;;7.83;6.00;;;24.10;92.40;;;;;;4968220;28;20959;-89
2023/06/23 02:09:26;;;;;;;6.23;5.73;;;24.20;92.60;;;;;;4968074;28;20475;-88
2023/06/23 02:11:57;;;;;;;6.17;5.60;;;24.00;92.70;;;;;;4968993;28;20428;-90
2023/06/23 02:14:25;;;;;;;6.13;5.43;;;24.10;93.10;;;;;;4968335;28;20444;-90
2023/06/23 02:16:53;;;;;;;5.80;5.40;;;24.00;93.10;;;;;;4968349;28;20432;-89
2023/06/23 02:19:23;;;;;;;6.70;6.10;;;24.10;93.20;;;;;;4983855;28;20475;-90
2023/06/23 02:21:49;;;;;;;5.77;5.20;;;24.10;93.30;;;;;;4968138;28;20906;-91
2023/06/23 02:24:18;;;;;;;6.20;5.60;;;24.00;93.30;;;;;;4968213;28;20467;-91
2023/06/23 02:26:46;;;;;;;7.10;6.13;;;24.00;93.60;;;;;;4967620;28;20456;-90
2023/06/23 02:29:12;;;;;;;6.33;5.73;;;24.00;93.60;;;;;;4984048;28;20528;-89
2023/06/23 02:31:38;;;;;;;5.63;5.07;;;24.00;93.60;;;;;;4967735;28;20763;-91
2023/06/23 02:34:04;;;;;;;6.53;5.37;;;24.10;94.20;;;;;;4967927;28;20436;-91
2023/06/23 02:36:37;;;;;;;6.33;5.73;;;24.10;94.50;;;;;;4983943;28;20417;-91
2023/06/23 02:39:05;;;;;;;6.07;5.47;;;24.00;93.80;;;;;;4968055;28;20420;-92
2023/06/23 02:41:34;;;;;;;5.43;4.93;;;24.00;94.10;;;;;;4983724;28;20823;-91
2023/06/23 02:44:09;;;;;;;5.97;5.43;;;24.10;94.30;;;;;;4984248;28;20448;-92
2023/06/23 02:46:38;;;;;;;6.87;6.23;;;24.00;90.40;;;;;;4999913;28;20577;-93
2023/06/23 02:49:12;;;;;;;6.27;5.73;;;24.10;88.10;;;;;;4967670;28;20455;-92
2023/06/23 02:51:40;;;;;;;5.93;5.47;;;24.00;86.00;;;;;;4977417;28;20567;-85
2023/06/23 02:54:12;;;;;;;6.33;5.70;;;23.90;84.50;;;;;;4998547;28;20757;-82
2023/06/23 02:56:41;;;;;;;5.83;5.33;;;23.90;79.10;;;;;;4981886;28;20455;-85
2023/06/23 02:59:14;;;;;;;7.93;5.80;;;23.90;77.10;;;;;;4998244;28;20820;-85
2023/06/23 03:01:46;;;;;;;6.50;5.50;;;23.90;78.30;;;;;;4954370;28;20808;-85
2023/06/23 03:04:12;;;;;;;5.60;5.10;;;23.80;79.80;;;;;;4943596;28;20509;-85
2023/06/23 03:06:40;;;;;;;8.10;5.17;;;23.90;82.80;;;;;;4949519;28;20470;-85
2023/06/23 03:09:06;;;;;;;6.70;5.70;;;23.80;76.70;;;;;;4965487;28;20422;-84
2023/06/23 03:11:33;;;;;;;5.80;5.30;;;23.90;76.80;;;;;;4949995;28;20432;-84
2023/06/23 03:14:00;;;;;;;5.77;5.30;;;23.90;76.90;;;;;;4981973;28;20456;-84
2023/06/23 03:16:48;;;;;;;5.50;5.07;;;23.80;76.80;;;;;;5014884;28;20491;-85
2023/06/23 03:19:34;;;;;;;6.00;5.50;;;23.80;76.80;;;;;;4997987;28;20831;-85
2023/06/23 03:22:23;;;;;;;6.10;5.57;;;23.80;76.90;;;;;;4992251;28;20443;-84
2023/06/23 03:24:55;;;;;;;6.07;5.43;;;23.80;76.90;;;;;;4973240;28;20864;-84
2023/06/23 03:27:26;;;;;;;5.80;5.20;;;23.80;78.90;;;;;;4959130;28;20470;-84
2023/06/23 03:30:02;;;;;;;6.93;5.40;;;23.70;78.40;;;;;;4927557;28;20442;-84
2023/06/23 03:32:36;;;;;;;5.73;5.20;;;23.70;77.90;;;;;;4992365;28;20418;-84
2023/06/23 03:35:11;;;;;;;5.53;5.03;;;23.80;79.80;;;;;;4978240;28;20844;-84
2023/06/23 03:37:47;;;;;;;5.77;5.27;;;23.70;85.60;;;;;;4977620;28;20476;-85
2023/06/23 03:40:19;;;;;;;10.40;5.07;;;23.70;84.30;;;;;;4978490;28;20468;-84
2023/06/23 03:42:48;;;;;;;5.47;5.07;;;23.80;85.70;;;;;;4978270;28;20413;-84
2023/06/23 03:45:19;;;;;;;6.13;5.03;;;23.80;85.50;;;;;;4975327;28;20479;-81
2023/06/23 03:47:52;;;;;;;5.80;5.30;;;23.70;86.10;;;;;;5014746;28;20396;-84
2023/06/23 03:50:25;;;;;;;5.30;4.90;;;23.70;86.10;;;;;;4996246;28;20454;-83
2023/06/23 03:52:54;;;;;;;5.67;5.07;;;23.60;86.10;;;;;;4995012;28;20622;-84
2023/06/23 03:55:23;;;;;;;6.00;5.10;;;23.60;86.00;;;;;;4974625;28;20488;-84
2023/06/23 03:57:54;;;;;;;5.73;5.30;;;23.60;85.80;;;;;;4997785;28;20440;-84
2023/06/23 04:00:21;;;;;;;4.80;4.50;;;23.70;86.10;;;;;;4991227;28;20413;-83
2023/06/23 04:02:52;;;;;;;5.10;4.70;;;23.60;86.00;;;;;;5005644;28;20794;-83
2023/06/23 04:05:25;;;;;;;7.37;5.20;;;23.60;78.70;;;;;;4965147;28;20461;-83
2023/06/23 04:07:54;;;;;;;5.60;5.20;;;23.70;81.00;;;;;;4981052;28;20448;-84
2023/06/23 04:10:25;;;;;;;5.50;4.70;;;23.60;84.70;;;;;;4973326;28;20442;-84
2023/06/23 04:12:58;;;;;;;6.27;5.20;;;23.60;86.40;;;;;;4992255;28;20443;-83
2023/06/23 04:15:30;;;;;;;5.53;5.03;;;23.60;87.30;;;;;;4997015;28;20830;-84
2023/06/23 04:17:58;;;;;;;5.57;5.17;;;23.60;79.60;;;;;;4982164;28;20468;-83
2023/06/23 04:20:28;;;;;;;6.07;5.50;;;23.60;77.60;;;;;;4950506;28;20429;-83
2023/06/23 04:22:57;;;;;;;5.40;5.00;;;23.60;78.40;;;;;;4997216;28;20407;-83
2023/06/23 04:25:24;;;;;;;5.80;5.40;;;23.60;79.40;;;;;;4997128;28;20428;-82
2023/06/23 04:27:56;;;;;;;6.73;6.00;;;23.50;84.00;;;;;;5013959;28;20427;-83
2023/06/23 04:30:26;;;;;;;5.73;5.10;;;23.50;85.20;;;;;;4981016;28;20416;-83
2023/06/23 04:32:55;;;;;;;5.80;5.00;;;23.50;77.80;;;;;;5004823;28;20555;-83
2023/06/23 04:35:25;;;;;;;6.53;5.93;;;23.60;78.30;;;;;;4951861;28;20466;-83
2023/06/23 04:38:04;;;;;;;6.27;5.77;;;23.60;78.30;;;;;;5014287;28;20420;-83
2023/06/23 04:40:48;;;;;;;6.80;6.30;;;23.60;83.00;;;;;;4997228;28;20460;-84
2023/06/23 04:43:36;;;;;;;9.47;5.47;;;23.40;82.20;;;;;;4965898;28;20445;-83
2023/06/23 04:46:09;;;;;;;8.83;5.50;;;23.50;85.00;;;;;;4975905;28;20468;-87
2023/06/23 04:49:03;;;;;;;5.80;5.30;;;23.40;85.80;;;;;;4972990;28;20535;-87
2023/06/23 04:51:34;;;;;;;6.13;5.57;;;23.50;86.60;;;;;;4986794;28;20469;-86
2023/06/23 04:54:20;;;;;;;5.53;5.13;;;23.50;87.40;;;;;;4969614;28;20428;-87
2023/06/23 04:56:49;;;;;;;5.50;5.10;;;23.50;88.20;;;;;;4994842;28;20469;-86
2023/06/23 04:59:21;;;;;;;6.50;5.43;;;23.40;88.20;;;;;;5002088;28;20444;-86
2023/06/23 05:01:50;;;;;;;6.50;6.00;;;23.40;81.50;;;;;;5012743;28;20460;-85
2023/06/23 05:04:19;;;;;;;6.13;5.50;;;23.40;84.50;;;;;;5011120;28;20413;-86
2023/06/23 05:06:46;;;;;;;6.13;5.63;;;23.50;84.10;;;;;;4986770;28;20451;-85
2023/06/23 05:09:19;;;;;;;6.90;6.30;;;23.40;86.20;;;;;;4986670;28;20516;-86
2023/06/23 05:11:48;;;;;;;6.70;6.10;;;23.40;86.10;;;;;;4998179;28;20421;-85
2023/06/23 05:14:20;;;;;;;6.53;5.90;;;23.40;86.30;;;;;;4983798;28;20443;-85
2023/06/23 05:16:49;;;;;;;7.63;6.03;;;23.40;86.40;;;;;;4974539;28;20473;-85
2023/06/23 05:19:17;;;;;;;7.43;5.63;;;23.40;86.70;;;;;;4978300;28;20501;-86
2023/06/23 05:21:44;;;;;;;6.30;5.80;;;23.40;86.70;;;;;;4947306;28;20433;-86
2023/06/23 05:24:11;;;;;;;7.00;6.03;;;23.40;87.00;;;;;;4983381;28;20440;-85
2023/06/23 05:26:41;;;;;;;6.47;5.97;;;23.40;87.70;;;;;;4968504;28;20512;-86
2023/06/23 05:29:09;;;;;;;6.20;5.70;;;23.40;88.40;;;;;;4978396;28;20468;-86
2023/06/23 05:31:42;;;;;;;6.27;5.70;;;23.40;88.50;;;;;;4979986;28;20415;-86
2023/06/23 05:34:13;;;;;;;8.50;6.07;;;23.40;89.40;;;;;;4990329;28;20555;-87
2023/06/23 05:36:40;;;;;;;7.10;6.07;;;23.40;89.90;;;;;;4973678;28;20465;-85
2023/06/23 05:39:08;;;;;;;7.27;6.00;;;23.30;89.70;;;;;;4986608;28;20827;-86
2023/06/23 05:41:34;;;;;;;6.90;6.17;;;23.40;90.00;;;;;;4974756;28;20914;-86
2023/06/23 05:44:03;;;;;;;6.40;5.90;;;23.40;90.10;;;;;;5012416;28;20441;-87
2023/06/23 05:46:32;;;;;;;6.80;5.97;;;23.40;90.10;;;;;;5004688;28;20474;-86
2023/06/23 05:49:09;;;;;;;7.20;6.10;;;23.30;90.00;;;;;;4968429;28;20516;-86
2023/06/23 05:51:37;;;;;;;7.60;6.50;;;23.30;90.00;;;;;;4977833;28;20452;-84
2023/06/23 05:54:09;;;;;;;13.07;10.90;;;23.30;89.70;;;;;;4997320;28;20523;-86
2023/06/23 05:56:44;;;;;;;15.00;12.90;;;23.40;90.50;;;;;;4985766;28;20470;-85
2023/06/23 05:59:43;;;;;;;13.70;12.30;;;23.30;92.20;;;;;;4981386;28;20476;-85
2023/06/23 06:02:24;;;;;;;14.13;12.73;;;23.30;89.20;;;;;;5003626;28;20503;-87
2023/06/23 06:04:55;;;;;;;15.63;12.90;;;23.10;88.30;;;;;;5004956;28;20427;-86
2023/06/23 06:07:26;;;;;;;18.67;13.60;;;23.10;89.60;;;;;;5000198;28;20400;-86
2023/06/23 06:09:56;;;;;;;17.90;14.53;;;23.00;90.60;;;;;;5000597;28;20468;-86
2023/06/23 06:12:26;;;;;;;16.83;13.57;;;22.90;91.00;;;;;;4982401;28;20463;-84
2023/06/23 06:14:53;;;;;;;15.07;13.37;;;22.90;91.10;;;;;;4981266;28;20975;-85
2023/06/23 06:17:23;;;;;;;20.00;13.87;;;22.80;90.90;;;;;;4980252;28;20499;-86
2023/06/23 06:19:52;;;;;;;15.80;14.20;;;22.70;91.40;;;;;;4979793;28;20405;-86
2023/06/23 06:22:22;;;;;;;15.63;14.03;;;22.60;91.80;;;;;;4960506;28;20434;-87
2023/06/23 06:24:52;;;;;;;15.60;13.43;;;22.50;91.90;;;;;;4974755;28;20523;-89
2023/06/23 06:27:20;;;;;;;18.00;12.33;;;22.60;92.60;;;;;;4978089;28;20827;-87
2023/06/23 06:29:48;;;;;;;15.07;13.57;;;22.50;92.90;;;;;;4996489;28;20437;-87
2023/06/23 06:32:18;;;;;;;12.07;10.87;;;22.40;92.80;;;;;;5003182;28;20431;-89
2023/06/23 06:34:48;;;;;;;10.97;9.50;;;22.40;92.80;;;;;;5013281;28;20424;-88
2023/06/23 06:37:16;;;;;;;13.23;9.43;;;22.30;92.70;;;;;;4984934;28;20429;-85
2023/06/23 06:39:44;;;;;;;9.20;8.20;;;22.40;92.60;;;;;;4978651;28;20490;-87
2023/06/23 06:42:15;;;;;;;9.13;8.23;;;22.50;92.70;;;;;;4977264;28;20432;-87
2023/06/23 06:44:44;;;;;;;9.50;7.57;;;22.60;92.60;;;;;;4959623;28;20826;-84
2023/06/23 06:47:11;;;;;;;7.87;7.07;;;22.50;92.30;;;;;;4962087;28;20437;-89
2023/06/23 06:49:43;;;;;;;9.23;7.10;;;22.60;92.00;;;;;;4954227;28;20521;-89
2023/06/23 06:52:09;;;;;;;8.23;7.40;;;22.70;92.00;;;;;;4976430;28;21123;-85
2023/06/23 06:54:39;;;;;;;7.70;7.00;;;22.70;91.00;;;;;;4984230;28;20438;-84
2023/06/23 06:57:08;;;;;;;7.10;6.47;;;22.70;91.60;;;;;;4971817;28;20475;-85
2023/06/23 06:59:34;;;;;;;7.03;6.37;;;22.80;91.50;;;;;;4998431;28;20499;-85
2023/06/23 07:02:02;;;;;;;8.30;6.73;;;22.80;91.50;;;;;;4972193;28;20449;-84
2023/06/23 07:04:28;;;;;;;6.93;6.23;;;22.80;91.40;;;;;;4983291;28;20450;-84
2023/06/23 07:06:54;;;;;;;7.63;6.87;;;22.90;91.30;;;;;;4997656;28;20897;-84
2023/06/23 07:09:20;;;;;;;7.17;6.57;;;22.90;91.10;;;;;;4998213;28;20538;-86
2023/06/23 07:11:56;;;;;;;7.33;6.60;;;22.90;91.20;;;;;;4971883;28;20428;-86
2023/06/23 07:14:24;;;;;;;7.83;6.50;;;22.90;91.10;;;;;;4998925;28;20448;-86
2023/06/23 07:16:54;;;;;;;6.73;6.17;;;23.00;91.50;;;;;;4978619;28;20540;-84
2023/06/23 07:19:22;;;;;;;6.90;6.30;;;22.90;91.00;;;;;;4974362;28;20845;-85
2023/06/23 07:21:50;;;;;;;6.63;6.13;;;23.00;90.90;;;;;;4969814;28;20421;-85
2023/06/23 07:24:16;;;;;;;9.07;7.30;;;23.00;90.80;;;;;;4966505;28;20461;-84
2023/06/23 07:26:42;;;;;;;8.77;6.27;;;23.00;90.80;;;;;;4943152;28;20430;-85
2023/06/23 07:29:08;;;;;;;7.27;6.57;;;23.00;90.70;;;;;;4983310;28;20546;-85
2023/06/23 07:31:37;;;;;;;7.23;6.63;;;23.00;90.70;;;;;;4984937;28;20512;-82
2023/06/23 07:34:04;;;;;;;6.80;6.27;;;23.10;90.80;;;;;;5014452;28;20431;-83
2023/06/23 07:36:32;;;;;;;8.27;7.57;;;23.00;90.70;;;;;;5014592;28;20471;-83
2023/06/23 07:39:03;;;;;;;9.67;7.13;;;23.10;90.80;;;;;;4997848;28;20422;-82
2023/06/23 07:41:33;;;;;;;7.30;6.70;;;23.10;90.80;;;;;;4990472;28;20531;-83
2023/06/23 07:43:59;;;;;;;7.40;6.70;;;23.00;90.70;;;;;;4997690;28;21013;-84
2023/06/23 07:46:25;;;;;;;7.30;6.67;;;23.00;87.60;;;;;;5013970;28;20559;-83
2023/06/23 07:48:51;;;;;;;6.77;6.27;;;23.00;90.80;;;;;;4997606;28;20169;-82
2023/06/23 07:51:17;;;;;;;7.17;6.57;;;23.10;90.80;;;;;;4977708;28;20438;-84
2023/06/23 07:53:43;;;;;;;7.83;7.00;;;23.10;90.80;;;;;;4974765;28;20734;-83
2023/06/23 07:56:12;;;;;;;8.30;7.50;;;23.10;90.60;;;;;;5010720;28;20205;-81
2023/06/23 07:58:40;;;;;;;7.00;6.30;;;23.10;90.60;;;;;;4980883;28;20538;-81
2023/06/23 08:01:06;;;;;;;6.50;5.90;;;23.10;90.70;;;;;;5007067;28;20504;-81
2023/06/23 08:03:37;;;;;;;7.00;6.40;;;23.20;90.60;;;;;;4952893;28;20453;-82
2023/06/23 08:06:03;;;;;;;7.87;7.07;;;23.10;90.60;;;;;;4961068;28;20437;-82
2023/06/23 08:08:33;;;;;;;9.63;7.50;;;23.20;90.60;;;;;;4988872;28;20850;-83
2023/06/23 08:10:59;;;;;;;8.40;7.60;;;23.10;89.60;;;;;;4965048;28;20475;-82
2023/06/23 08:13:25;;;;;;;7.67;6.97;;;23.10;90.60;;;;;;4962022;28;20441;-82
2023/06/23 08:15:51;;;;;;;7.30;6.70;;;23.20;90.70;;;;;;4992291;28;20487;-81
2023/06/23 08:18:19;;;;;;;7.93;7.13;;;23.20;90.70;;;;;;4997467;28;20256;-82
2023/06/23 08:20:49;;;;;;;7.40;6.70;;;23.10;90.80;;;;;;5001016;28;20892;-83
2023/06/23 08:23:15;;;;;;;6.70;6.10;;;23.20;91.10;;;;;;5001491;28;20264;-81
2023/06/23 08:25:41;;;;;;;7.70;7.00;;;23.30;91.30;;;;;;5010273;28;20459;-80
2023/06/23 08:28:07;;;;;;;7.30;6.60;;;23.20;91.60;;;;;;5022327;28;20511;-82
2023/06/23 08:30:37;;;;;;;8.47;7.47;;;23.30;91.40;;;;;;5012901;28;20436;-83
2023/06/23 08:33:03;;;;;;;7.43;6.83;;;23.20;91.10;;;;;;4970047;28;20462;-82
2023/06/23 08:35:29;;;;;;;8.17;7.33;;;23.30;91.20;;;;;;4997314;28;20482;-82
2023/06/23 08:38:04;;;;;;;7.30;6.70;;;23.30;91.10;;;;;;5005910;28;20457;-81
2023/06/23 08:40:30;;;;;;;7.00;6.40;;;23.30;91.10;;;;;;4981217;28;20431;-82
2023/06/23 08:43:00;;;;;;;7.93;6.90;;;23.40;90.70;;;;;;4995642;28;20452;-80
2023/06/23 08:45:31;;;;;;;7.60;6.90;;;23.30;91.60;;;;;;5010360;28;20476;-83
2023/06/23 08:47:59;;;;;;;8.00;7.20;;;23.30;91.70;;;;;;4996006;28;20471;-84
2023/06/23 08:50:25;;;;;;;6.73;6.23;;;23.40;91.80;;;;;;4969646;28;20424;-82
2023/06/23 08:52:54;;;;;;;6.93;6.43;;;23.40;91.90;;;;;;5001269;28;20798;-82
2023/06/23 08:55:20;;;;;;;8.23;7.40;;;23.40;92.10;;;;;;4966078;28;20475;-84
2023/06/23 08:57:46;;;;;;;7.30;6.70;;;23.40;91.80;;;;;;4987482;28;20519;-83
2023/06/23 09:00:12;;;;;;;7.67;6.97;;;23.50;91.90;;;;;;4974824;28;20769;-83
2023/06/23 09:02:38;;;;;;;6.93;6.33;;;23.40;91.70;;;;;;4978722;28;20414;-82
2023/06/23 09:05:09;;;;;;;7.20;6.60;;;23.50;91.60;;;;;;4976522;28;20469;-82
2023/06/23 09:07:35;;;;;;;7.00;6.37;;;23.60;91.70;;;;;;4961589;28;20462;-84
2023/06/23 09:10:01;;;;;;;6.57;6.07;;;23.50;91.50;;;;;;5014059;28;20483;-83
2023/06/23 09:12:34;;;;;;;6.83;6.30;;;23.60;91.50;;;;;;4972867;28;20456;-83
2023/06/23 09:15:03;;;;;;;7.57;6.97;;;23.60;82.70;;;;;;5012037;28;20562;-82
2023/06/23 09:17:33;;;;;;;7.77;6.97;;;23.60;86.80;;;;;;5009016;28;20816;-82
2023/06/23 09:20:01;;;;;;;7.10;6.40;;;23.60;91.60;;;;;;5000433;28;20435;-82
2023/06/23 09:22:31;;;;;;;7.43;6.57;;;23.70;91.60;;;;;;5000164;28;20901;-83
2023/06/23 09:24:57;;;;;;;7.50;6.80;;;23.60;91.60;;;;;;5005157;28;20519;-83
2023/06/23 09:27:41;;;;;;;6.77;5.70;;;23.70;91.50;;;;;;4999972;28;20800;-83
2023/06/23 09:30:12;;;;;;;6.50;5.90;;;23.70;85.70;;;;;;4960576;28;20928;-82
2023/06/23 09:32:43;;;;;;;6.23;5.50;;;23.70;91.40;;;;;;4967726;28;20449;-83
2023/06/23 09:35:09;;;;;;;6.90;6.30;;;23.70;91.10;;;;;;4972515;28;20957;-82
2023/06/23 09:37:40;;;;;;;6.70;6.10;;;23.70;91.00;;;;;;4978705;28;20759;-83
2023/06/23 09:40:06;;;;;;;6.40;5.90;;;23.70;90.90;;;;;;4993227;28;20520;-82
2023/06/23 09:42:32;;;;;;;6.30;5.77;;;23.80;90.80;;;;;;4973054;28;20435;-84
2023/06/23 09:44:58;;;;;;;6.17;5.60;;;23.70;91.10;;;;;;5009232;28;20432;-83
2023/06/23 09:47:26;;;;;;;5.87;5.33;;;23.80;91.20;;;;;;4981948;28;20481;-83
2023/06/23 09:49:54;;;;;;;6.57;5.90;;;23.80;91.20;;;;;;5015749;28;20420;-84
2023/06/23 09:52:26;;;;;;;5.80;5.30;;;23.80;91.30;;;;;;4983920;28;20899;-83
2023/06/23 09:54:52;;;;;;;6.60;6.00;;;23.80;91.20;;;;;;4990722;28;20437;-84
2023/06/23 09:57:21;;;;;;;6.93;6.30;;;23.90;91.40;;;;;;4945183;28;20469;-83
2023/06/23 09:59:51;;;;;;;6.27;5.73;;;23.90;91.10;;;;;;4976236;28;20506;-84
2023/06/23 10:02:25;;;;;;;6.83;6.23;;;24.00;90.80;;;;;;4999813;28;20408;-84
2023/06/23 10:04:59;;;;;;;6.53;5.93;;;24.00;90.90;;;;;;4984920;28;20953;-83
2023/06/23 10:07:26;;;;;;;7.07;6.23;;;24.00;90.90;;;;;;4948686;28;20401;-84
2023/06/23 10:09:57;;;;;;;6.13;5.60;;;24.00;90.80;;;;;;4961573;28;20445;-83
2023/06/23 10:12:26;;;;;;;6.33;5.83;;;24.10;90.60;;;;;;4977360;28;20401;-83
2023/06/23 10:14:54;;;;;;;6.83;6.13;;;24.10;90.20;;;;;;4982692;28;20450;-84
2023/06/23 10:17:20;;;;;;;6.50;5.90;;;24.10;90.40;;;;;;4960533;28;20777;-85
2023/06/23 10:19:49;;;;;;;5.50;5.10;;;24.10;89.60;;;;;;4991922;28;20456;-82
2023/06/23 10:22:18;;;;;;;8.20;7.30;;;24.20;90.30;;;;;;4980965;28;20421;-82
2023/06/23 10:24:47;;;;;;;6.63;6.10;;;24.20;90.20;;;;;;4960448;28;20446;-85
2023/06/23 10:27:27;;;;;;;7.20;6.57;;;24.20;90.10;;;;;;4960137;28;20418;-79
2023/06/23 10:30:00;;;;;;;6.47;6.00;;;24.20;90.00;;;;;;4962727;28;20449;-80
2023/06/23 10:32:29;;;;;;;6.60;6.10;;;24.20;87.40;;;;;;4990790;28;20459;-79
2023/06/23 10:35:01;;;;;;;6.07;5.60;;;24.30;90.00;;;;;;4979031;28;20491;-80
2023/06/23 10:37:27;;;;;;;6.90;6.20;;;24.20;89.70;;;;;;4996714;28;20491;-80
2023/06/23 10:40:01;;;;;;;6.00;5.50;;;24.30;90.00;;;;;;4982373;28;20437;-81
2023/06/23 10:42:29;;;;;;;7.00;6.37;;;24.40;90.00;;;;;;4978340;28;20413;-81
2023/06/23 10:44:59;;;;;;;6.40;5.90;;;24.40;90.10;;;;;;4970677;28;20959;-81
2023/06/23 10:47:25;;;;;;;6.57;6.07;;;24.30;89.90;;;;;;5015317;28;20503;-80
2023/06/23 10:49:55;;;;;;;5.97;5.40;;;24.50;90.00;;;;;;4980822;28;20465;-80
2023/06/23 10:52:26;;;;;;;6.30;5.80;;;24.40;89.70;;;;;;4980813;28;20439;-80
2023/06/23 10:54:54;;;;;;;6.23;5.63;;;24.40;89.60;;;;;;4997460;28;20484;-80
2023/06/23 10:57:20;;;;;;;6.60;6.00;;;24.50;89.40;;;;;;4962309;28;20457;-79
2023/06/23 11:00:05;;;;;;;6.60;6.10;;;24.50;89.30;;;;;;5004462;28;20521;-89
2023/06/23 11:02:53;;;;;;;6.40;5.90;;;24.50;89.20;;;;;;4960390;28;20198;-88
2023/06/23 11:05:21;;;;;;;6.53;5.93;;;24.60;88.80;;;;;;4947475;28;20516;-89
2023/06/23 11:08:01;;;;;;;7.07;6.47;;;24.60;88.60;;;;;;4999051;28;20405;-91
2023/06/23 11:10:56;;;;;;;6.50;6.00;;;24.70;88.30;;;;;;4992166;28;20452;-87
2023/06/23 11:13:31;;;;;;;6.80;6.13;;;24.80;88.30;;;;;;4946785;28;20429;-83
2023/06/23 11:16:00;;;;;;;6.40;5.90;;;24.70;88.10;;;;;;4976199;28;20460;-86
2023/06/23 11:18:26;;;;;;;6.27;5.77;;;24.80;87.90;;;;;;4943674;28;20426;-86
2023/06/23 11:20:54;;;;;;;6.10;5.63;;;24.80;88.00;;;;;;4978251;28;20430;-86
2023/06/23 11:23:22;;;;;;;6.20;5.70;;;24.70;87.70;;;;;;4998041;28;20774;-85
2023/06/23 11:25:50;;;;;;;6.23;5.70;;;24.90;88.00;;;;;;4977991;28;20433;-86
2023/06/23 11:28:36;;;;;;;6.03;5.53;;;24.90;87.70;;;;;;4964842;28;20422;-85
2023/06/23 11:31:19;;;;;;;6.47;5.90;;;24.90;87.40;;;;;;4959797;28;20432;-86
2023/06/23 11:34:02;;;;;;;6.10;5.60;;;24.90;87.10;;;;;;4943499;28;20418;-86
2023/06/23 11:36:33;;;;;;;5.97;5.57;;;25.00;86.70;;;;;;4964637;28;20543;-85
2023/06/23 11:39:02;;;;;;;6.10;5.60;;;24.90;86.10;;;;;;4987754;28;20899;-88
2023/06/23 11:41:33;;;;;;;6.13;5.73;;;25.00;87.40;;;;;;4960214;28;20457;-86
2023/06/23 11:44:03;;;;;;;8.60;5.53;;;25.10;86.40;;;;;;4959478;28;20870;-86
2023/06/23 11:46:35;;;;;;;6.70;6.20;;;25.10;86.40;;;;;;4959138;28;20448;-86
2023/06/23 11:49:14;;;;;;;6.87;6.30;;;25.10;86.40;;;;;;4943890;28;20743;-90
2023/06/23 11:51:40;;;;;;;5.90;5.50;;;25.20;83.70;;;;;;4959651;28;20438;-89
2023/06/23 11:54:07;;;;;;;6.33;5.83;;;25.30;83.60;;;;;;4958538;28;20469;-90
2023/06/23 11:56:33;;;;;;;6.07;5.50;;;25.30;83.30;;;;;;4964902;28;20557;-89
2023/06/23 11:59:02;;;;;;;6.87;6.37;;;25.20;83.30;;;;;;4981981;28;20820;-90
2023/06/23 12:01:28;;;;;;;6.00;5.60;;;25.40;84.40;;;;;;4966361;28;20429;-89
2023/06/23 12:03:56;;;;;;;6.33;5.73;;;25.30;82.90;;;;;;4982408;28;20828;-89
2023/06/23 12:06:27;;;;;;;6.03;5.63;;;25.40;84.00;;;;;;4982514;28;20456;-89
2023/06/23 12:08:57;;;;;;;5.90;5.40;;;25.30;81.80;;;;;;4998172;28;20228;-89
2023/06/23 12:11:23;;;;;;;6.10;5.60;;;25.60;83.20;;;;;;4982464;28;20976;-91
2023/06/23 12:13:52;;;;;;;5.80;5.30;;;25.50;80.90;;;;;;4965967;28;20495;-89
2023/06/23 12:16:18;;;;;;;5.73;5.23;;;25.50;82.60;;;;;;4997829;28;20471;-89
2023/06/23 12:18:49;;;;;;;5.73;5.33;;;25.60;82.20;;;;;;4997904;28;20427;-89
2023/06/23 12:21:21;;;;;;;5.57;5.07;;;25.60;82.20;;;;;;4969087;28;20233;-88
2023/06/23 12:23:47;;;;;;;6.40;5.80;;;25.60;81.20;;;;;;4927289;28;20506;-88
2023/06/23 12:26:14;;;;;;;6.13;5.63;;;25.70;82.10;;;;;;4967596;28;20440;-88
2023/06/23 12:28:42;;;;;;;5.90;5.50;;;25.60;81.60;;;;;;4981664;28;20509;-89
2023/06/23 12:31:08;;;;;;;6.30;5.70;;;25.80;79.60;;;;;;4965531;28;20432;-88
2023/06/23 12:33:38;;;;;;;6.60;6.10;;;25.80;81.60;;;;;;4997766;28;20430;-89
2023/06/23 12:36:07;;;;;;;6.00;5.50;;;25.70;78.30;;;;;;4980001;28;20281;-91
2023/06/23 12:38:35;;;;;;;6.57;6.07;;;25.90;79.20;;;;;;4946646;28;20812;-89
2023/06/23 12:41:34;;;;;;;6.33;5.90;;;25.70;79.90;;;;;;4946579;28;20492;-89
2023/06/23 12:44:00;;;;;;;6.03;5.53;;;25.90;80.20;;;;;;4926566;28;20528;-88
2023/06/23 12:46:28;;;;;;;6.43;5.93;;;26.00;79.70;;;;;;4946529;28;20447;-88
2023/06/23 12:48:58;;;;;;;6.87;6.37;;;26.00;79.20;;;;;;4962203;28;20779;-87
2023/06/23 12:51:38;;;;;;;6.07;5.57;;;25.90;79.30;;;;;;4978123;28;20401;-87
2023/06/23 12:54:04;;;;;;;6.03;5.63;;;26.10;79.30;;;;;;4978045;28;20460;-88
2023/06/23 12:56:31;;;;;;;6.53;6.03;;;25.80;79.10;;;;;;4977912;28;20444;-88
2023/06/23 12:58:59;;;;;;;6.43;5.93;;;26.00;79.20;;;;;;4946272;28;20528;-87
2023/06/23 13:01:25;;;;;;;6.80;6.30;;;26.10;80.50;;;;;;4955712;28;20511;-87
2023/06/23 13:03:51;;;;;;;5.93;5.53;;;26.10;80.60;;;;;;4981632;28;20769;-87
2023/06/23 13:06:17;;;;;;;6.27;5.87;;;26.10;80.90;;;;;;4985141;28;20526;-87